Search for airport 
image banner adimage banner adimage banner ad
image banner ad

CA28 - Riverside County Rgnl Medical Center

Located in Moreno Valley, United States

ICAO - CA28, IATA -

Data provided by Airmate  

General information

Coordinates: N33°54'47" W117°11'47"
Elevation is 1563 feet MSL.
Magnetic variation is 14° East
View others Airports in California

Operational data

Special qualification required
Current time UTC:
Current local time:
Weather at : KRIV - March Arb ( 7 km )
METAR: KRIV 141058Z AUTO 32003KT 10SM CLR 15/03 A2992 RMK AO2 SLP118 T01460034
TAF: TAF KRIV 140400Z 1404/1510 VRB05KT 9999 FEW250 QNH2992INS BECMG 1419/1420 32009KT 9999 SKC QNH2989INS TEMPO 1420/1502 32012G18KT BECMG 1504/1505 VRB05KT 9999 SCT250 QNH2988INS TX37/1422Z TN10/1413Z
View NOTAMs / SUP AIP / TFR affecting this airport [VIEW]
Communications frequencies: [VIEW]

Runways:

Airport contact information

Address: Moreno Valley United States

Satellite view of CA28